Bookmark and Share
Track history (hours):
 

Tim S. Dool

Last reported at 2014-Apr-16 12:00 UTC. Time now 2014-Apr-16 16:00 UTC.
Position N 50°12' W 066°30'.

Length 223 m; draft 8 m.

Type: Cargo ship. MMSI: 316001696.

Wind from 300 at 27 knots

Waves 0.5 meters (2 feet), 2 second period

Barometer 998.0 mb
Air temperature -0.0 ° C
Visibility: greater than 5.4 NM

NotesDate/timePositionNaut miles runAvg speedWind from/ knotsBaromVisibWave heightAir tempDewpointWater temp
2014-Apr-16 12:00N 50°12' W 066°30'0 0.0 300 / 27998.0 5.4 0.5-0.0
2014-Apr-16 00:00N 50°12' W 066°30'0 0.0 060 / 5992.0 0.5 5.0
2014-Apr-14 12:00N 50°12' W 066°30'0 0.0 090 / 61011.0 5.4 0.5 1.0
2014-Apr-14 00:00N 50°12' W 066°30'0 0.0 110 / 61021.010.8 0.5-1.0
2014-Apr-13 12:00N 50°12' W 066°30'0 0.0 340 / 51024.010.8 -4.0
2014-Apr-13 00:00N 50°12' W 066°30'208 6.0 320 / 171012.010.8 0.5 1.0
2014-Apr-11 13:00N 47°36' W 070°00'10712.5 200 / 171004.0 5.4 1.0 5.0
2014-Apr-11 04:28N 46°34' W 072°07'1314.4
2014-Apr-11 03:34N 46°25' W 072°22'1212.4
2014-Apr-11 02:33N 46°17' W 072°36'3413.4
2014-Apr-11 00:00N 45°54' W 073°12'512.0 190 / 15796.0 0.5-11.1
2014-Apr-10 23:34N 45°50' W 073°17'1414.4
2014-Apr-10 22:33N 45°38' W 073°29'8 8.4
2014-Apr-10 21:33N 45°30' W 073°31'1 1.2
2014-Apr-10 20:33N 45°29' W 073°31'4 4.5
2014-Apr-10 19:33N 45°25' W 073°32'2 1.8
2014-Apr-10 18:33N 45°24' W 073°34'0 0.0
2014-Apr-10 17:33N 45°24' W 073°34'1 0.9
2014-Apr-10 16:33N 45°24' W 073°36'5 5.2
2014-Apr-10 15:33N 45°25' W 073°43'9 9.0
2014-Apr-10 14:34N 45°20' W 073°54'0 0.1
2014-Apr-10 13:31N 45°20' W 073°54'0 0.0
2014-Apr-10 12:28N 45°20' W 073°54'0 0.0
2014-Apr-10 11:31N 45°20' W 073°54'0 0.0
2014-Apr-10 10:31N 45°20' W 073°54'0 0.2
2014-Apr-10 09:34N 45°20' W 073°54'1 1.5
2014-Apr-10 08:34N 45°19' W 073°55'1 0.7
2014-Apr-10 07:34N 45°18' W 073°56'0 0.3
2014-Apr-10 06:34N 45°18' W 073°56'0 0.0
2014-Apr-10 05:34N 45°18' W 073°56'0 0.0
2014-Apr-10 04:34N 45°18' W 073°56'1 1.3
2014-Apr-10 03:33N 45°17' W 073°57'0 0.4
2014-Apr-10 02:27N 45°16' W 073°57'0 0.0
2014-Apr-10 01:33N 45°16' W 073°57'2 2.5
2014-Apr-10 00:33N 45°15' W 073°59'10 9.3
2014-Apr-09 23:28N 45°14' W 074°13'11 9.7
2014-Apr-09 22:22N 45°08' W 074°26'  
2014-Apr-07 13:00N 44°36' W 075°36'35 2.7 360 / 21016.010.8 4.0
2014-Apr-07 00:00N 44°12' W 076°12'2 3.6 200 / 71017.0 0.5 6.0
2014-Apr-06 23:33N 44°12' W 076°14'1310.8
2014-Apr-06 22:22N 44°03' W 076°26'10312.3
2014-Apr-06 14:00N 43°30' W 078°42'   230 / 71019.010.8 0.5 5.0

Dump ship's entire track history

sailing weather and tide predictions

Tim S. Dool — VGPY — position and weather